sensor_id;sensor_type;location;lat;lon;timestamp;temperature;humidity
25360;DHT22;13311;51.386;0.016;2024-02-26T00:04:08;8.00;99.90
25360;DHT22;13311;51.386;0.016;2024-02-26T00:09:09;7.90;99.90
25360;DHT22;13311;51.386;0.016;2024-02-26T00:14:10;8.00;99.90
25360;DHT22;13311;51.386;0.016;2024-02-26T00:19:11;7.90;99.90
25360;DHT22;13311;51.386;0.016;2024-02-26T00:24:12;7.90;99.90
25360;DHT22;13311;51.386;0.016;2024-02-26T00:29:13;8.00;99.90
25360;DHT22;13311;51.386;0.016;2024-02-26T00:34:14;8.00;99.90
25360;DHT22;13311;51.386;0.016;2024-02-26T00:39:15;8.00;99.90
25360;DHT22;13311;51.386;0.016;2024-02-26T00:44:16;8.00;99.90
25360;DHT22;13311;51.386;0.016;2024-02-26T00:49:16;8.00;99.90
25360;DHT22;13311;51.386;0.016;2024-02-26T00:54:17;8.00;99.90
25360;DHT22;13311;51.386;0.016;2024-02-26T00:59:18;8.00;99.90
25360;DHT22;13311;51.386;0.016;2024-02-26T01:04:19;8.00;99.90
25360;DHT22;13311;51.386;0.016;2024-02-26T01:09:20;8.10;99.90
25360;DHT22;13311;51.386;0.016;2024-02-26T01:14:21;8.10;99.90
25360;DHT22;13311;51.386;0.016;2024-02-26T01:19:22;8.20;99.90
25360;DHT22;13311;51.386;0.016;2024-02-26T01:24:22;8.30;99.90
25360;DHT22;13311;51.386;0.016;2024-02-26T01:29:23;8.30;99.90
25360;DHT22;13311;51.386;0.016;2024-02-26T01:34:24;8.10;99.90
25360;DHT22;13311;51.386;0.016;2024-02-26T01:39:25;8.10;99.90
25360;DHT22;13311;51.386;0.016;2024-02-26T01:44:26;8.30;99.90
25360;DHT22;13311;51.386;0.016;2024-02-26T01:49:27;8.20;99.90
25360;DHT22;13311;51.386;0.016;2024-02-26T01:54:29;8.30;99.90
25360;DHT22;13311;51.386;0.016;2024-02-26T01:59:31;8.20;99.90
25360;DHT22;13311;51.386;0.016;2024-02-26T02:04:33;8.20;99.90
25360;DHT22;13311;51.386;0.016;2024-02-26T02:09:35;8.30;99.90
25360;DHT22;13311;51.386;0.016;2024-02-26T02:14:35;8.30;99.90
25360;DHT22;13311;51.386;0.016;2024-02-26T02:19:36;8.30;99.90
25360;DHT22;13311;51.386;0.016;2024-02-26T02:24:37;8.40;99.90
25360;DHT22;13311;51.386;0.016;2024-02-26T02:29:38;8.40;99.90
25360;DHT22;13311;51.386;0.016;2024-02-26T02:34:39;8.40;99.90
25360;DHT22;13311;51.386;0.016;2024-02-26T02:39:40;8.40;99.90
25360;DHT22;13311;51.386;0.016;2024-02-26T02:44:43;8.40;99.90
25360;DHT22;13311;51.386;0.016;2024-02-26T02:49:45;8.40;99.90
25360;DHT22;13311;51.386;0.016;2024-02-26T02:54:45;8.50;99.90
25360;DHT22;13311;51.386;0.016;2024-02-26T02:59:47;8.50;99.90
25360;DHT22;13311;51.386;0.016;2024-02-26T03:04:48;8.40;99.90
25360;DHT22;13311;51.386;0.016;2024-02-26T03:09:49;8.40;99.90
25360;DHT22;13311;51.386;0.016;2024-02-26T03:14:50;8.40;99.90
25360;DHT22;13311;51.386;0.016;2024-02-26T03:19:54;8.30;99.90
25360;DHT22;13311;51.386;0.016;2024-02-26T03:24:55;8.30;99.90
25360;DHT22;13311;51.386;0.016;2024-02-26T03:29:56;8.30;99.90
25360;DHT22;13311;51.386;0.016;2024-02-26T03:34:57;8.30;99.90
25360;DHT22;13311;51.386;0.016;2024-02-26T03:39:58;8.40;99.90
25360;DHT22;13311;51.386;0.016;2024-02-26T03:45:01;8.40;99.90
25360;DHT22;13311;51.386;0.016;2024-02-26T03:50:03;8.50;99.90
25360;DHT22;13311;51.386;0.016;2024-02-26T03:55:05;8.50;99.90
25360;DHT22;13311;51.386;0.016;2024-02-26T04:00:07;8.40;99.90
25360;DHT22;13311;51.386;0.016;2024-02-26T04:05:12;8.30;99.90
25360;DHT22;13311;51.386;0.016;2024-02-26T04:10:14;8.30;99.90
25360;DHT22;13311;51.386;0.016;2024-02-26T04:15:15;8.40;99.90
25360;DHT22;13311;51.386;0.016;2024-02-26T04:20:16;8.30;99.90
25360;DHT22;13311;51.386;0.016;2024-02-26T04:25:17;8.30;99.90
25360;DHT22;13311;51.386;0.016;2024-02-26T04:30:18;8.30;99.90
25360;DHT22;13311;51.386;0.016;2024-02-26T04:35:19;8.40;99.90
25360;DHT22;13311;51.386;0.016;2024-02-26T04:40:20;8.50;99.90
25360;DHT22;13311;51.386;0.016;2024-02-26T04:45:24;8.40;99.90
25360;DHT22;13311;51.386;0.016;2024-02-26T04:50:25;8.30;99.90
25360;DHT22;13311;51.386;0.016;2024-02-26T04:55:26;8.20;99.90
25360;DHT22;13311;51.386;0.016;2024-02-26T05:00:27;8.30;99.90
25360;DHT22;13311;51.386;0.016;2024-02-26T05:05:27;8.30;99.90
25360;DHT22;13311;51.386;0.016;2024-02-26T05:10:28;8.40;99.90
25360;DHT22;13311;51.386;0.016;2024-02-26T05:15:29;8.20;99.90
25360;DHT22;13311;51.386;0.016;2024-02-26T05:20:29;8.30;99.90
25360;DHT22;13311;51.386;0.016;2024-02-26T05:25:31;8.30;99.90
25360;DHT22;13311;51.386;0.016;2024-02-26T05:30:32;8.30;99.90
25360;DHT22;13311;51.386;0.016;2024-02-26T05:35:33;8.40;99.90
25360;DHT22;13311;51.386;0.016;2024-02-26T05:40:35;8.30;99.90
25360;DHT22;13311;51.386;0.016;2024-02-26T05:45:36;8.10;99.90
25360;DHT22;13311;51.386;0.016;2024-02-26T05:50:36;8.10;99.90
25360;DHT22;13311;51.386;0.016;2024-02-26T05:55:37;8.00;99.90
25360;DHT22;13311;51.386;0.016;2024-02-26T06:00:38;8.00;99.90
25360;DHT22;13311;51.386;0.016;2024-02-26T06:05:39;8.10;99.90
25360;DHT22;13311;51.386;0.016;2024-02-26T06:10:40;8.00;99.90
25360;DHT22;13311;51.386;0.016;2024-02-26T06:15:42;8.10;99.90
25360;DHT22;13311;51.386;0.016;2024-02-26T06:20:43;7.90;99.90
25360;DHT22;13311;51.386;0.016;2024-02-26T06:25:43;7.90;99.90
25360;DHT22;13311;51.386;0.016;2024-02-26T06:30:44;7.90;99.80
25360;DHT22;13311;51.386;0.016;2024-02-26T06:35:46;8.10;99.40
25360;DHT22;13311;51.386;0.016;2024-02-26T06:40:47;8.10;99.00
25360;DHT22;13311;51.386;0.016;2024-02-26T06:45:48;8.00;98.80
25360;DHT22;13311;51.386;0.016;2024-02-26T06:50:49;7.90;98.90
25360;DHT22;13311;51.386;0.016;2024-02-26T06:55:51;8.00;99.20
25360;DHT22;13311;51.386;0.016;2024-02-26T07:00:52;7.90;98.80
25360;DHT22;13311;51.386;0.016;2024-02-26T07:05:52;7.90;98.40
25360;DHT22;13311;51.386;0.016;2024-02-26T07:10:54;7.80;98.40
25360;DHT22;13311;51.386;0.016;2024-02-26T07:15:54;7.90;98.50
25360;DHT22;13311;51.386;0.016;2024-02-26T07:20:55;7.70;99.30
25360;DHT22;13311;51.386;0.016;2024-02-26T07:25:56;7.70;97.90
25360;DHT22;13311;51.386;0.016;2024-02-26T07:30:57;7.70;97.90
25360;DHT22;13311;51.386;0.016;2024-02-26T07:35:57;7.80;98.40
25360;DHT22;13311;51.386;0.016;2024-02-26T07:40:58;7.80;98.10
25360;DHT22;13311;51.386;0.016;2024-02-26T07:45:59;7.70;97.90
25360;DHT22;13311;51.386;0.016;2024-02-26T07:51:00;7.70;98.30
25360;DHT22;13311;51.386;0.016;2024-02-26T07:56:00;7.80;98.20
25360;DHT22;13311;51.386;0.016;2024-02-26T08:01:01;7.80;97.80
25360;DHT22;13311;51.386;0.016;2024-02-26T08:06:02;7.90;97.70
25360;DHT22;13311;51.386;0.016;2024-02-26T08:11:03;7.80;97.20
25360;DHT22;13311;51.386;0.016;2024-02-26T08:16:05;7.70;97.40
25360;DHT22;13311;51.386;0.016;2024-02-26T08:21:06;8.10;99.30
25360;DHT22;13311;51.386;0.016;2024-02-26T08:26:06;8.10;96.90
25360;DHT22;13311;51.386;0.016;2024-02-26T08:31:10;8.10;96.80
25360;DHT22;13311;51.386;0.016;2024-02-26T08:36:11;8.00;96.10
25360;DHT22;13311;51.386;0.016;2024-02-26T08:41:13;8.20;96.40
25360;DHT22;13311;51.386;0.016;2024-02-26T08:46:14;8.20;96.60
25360;DHT22;13311;51.386;0.016;2024-02-26T08:51:15;8.30;97.00
25360;DHT22;13311;51.386;0.016;2024-02-26T08:56:15;8.40;97.60
25360;DHT22;13311;51.386;0.016;2024-02-26T09:01:17;8.50;96.80
25360;DHT22;13311;51.386;0.016;2024-02-26T09:06:18;8.40;96.90
25360;DHT22;13311;51.386;0.016;2024-02-26T09:11:19;8.20;96.90
25360;DHT22;13311;51.386;0.016;2024-02-26T09:16:19;8.10;97.20
25360;DHT22;13311;51.386;0.016;2024-02-26T09:21:20;8.00;97.60
25360;DHT22;13311;51.386;0.016;2024-02-26T09:26:23;7.90;97.70
25360;DHT22;13311;51.386;0.016;2024-02-26T09:31:24;7.90;98.00
25360;DHT22;13311;51.386;0.016;2024-02-26T09:36:25;7.90;97.80
25360;DHT22;13311;51.386;0.016;2024-02-26T09:41:28;7.90;97.60
25360;DHT22;13311;51.386;0.016;2024-02-26T09:46:30;8.00;97.30
25360;DHT22;13311;51.386;0.016;2024-02-26T09:51:32;8.00;97.30
25360;DHT22;13311;51.386;0.016;2024-02-26T09:56:32;8.00;97.20
25360;DHT22;13311;51.386;0.016;2024-02-26T10:01:34;8.10;97.60
25360;DHT22;13311;51.386;0.016;2024-02-26T10:06:36;8.10;97.20
25360;DHT22;13311;51.386;0.016;2024-02-26T10:11:38;8.10;97.10
25360;DHT22;13311;51.386;0.016;2024-02-26T10:16:40;8.20;97.10
25360;DHT22;13311;51.386;0.016;2024-02-26T10:21:42;8.30;96.90
25360;DHT22;13311;51.386;0.016;2024-02-26T10:26:46;8.20;96.50
25360;DHT22;13311;51.386;0.016;2024-02-26T10:31:47;8.30;96.50
25360;DHT22;13311;51.386;0.016;2024-02-26T10:36:49;8.30;96.30
25360;DHT22;13311;51.386;0.016;2024-02-26T10:41:50;8.30;96.30
25360;DHT22;13311;51.386;0.016;2024-02-26T10:46:51;8.30;96.40
25360;DHT22;13311;51.386;0.016;2024-02-26T10:51:56;8.20;96.60
25360;DHT22;13311;51.386;0.016;2024-02-26T10:57:00;8.10;97.10
25360;DHT22;13311;51.386;0.016;2024-02-26T11:02:02;8.10;96.70
25360;DHT22;13311;51.386;0.016;2024-02-26T11:07:04;8.20;96.50
25360;DHT22;13311;51.386;0.016;2024-02-26T11:12:06;8.20;96.50
25360;DHT22;13311;51.386;0.016;2024-02-26T11:17:13;8.30;96.20
25360;DHT22;13311;51.386;0.016;2024-02-26T11:22:13;8.40;96.20
25360;DHT22;13311;51.386;0.016;2024-02-26T11:27:16;8.30;95.40
25360;DHT22;13311;51.386;0.016;2024-02-26T11:32:19;8.20;95.00
25360;DHT22;13311;51.386;0.016;2024-02-26T11:37:20;8.30;94.80
25360;DHT22;13311;51.386;0.016;2024-02-26T11:42:24;8.30;95.20
25360;DHT22;13311;51.386;0.016;2024-02-26T11:47:27;8.50;95.10
25360;DHT22;13311;51.386;0.016;2024-02-26T11:52:27;8.60;95.00
25360;DHT22;13311;51.386;0.016;2024-02-26T11:57:30;8.70;94.80
25360;DHT22;13311;51.386;0.016;2024-02-26T12:02:45;8.60;94.50
25360;DHT22;13311;51.386;0.016;2024-02-26T12:07:53;8.60;94.10
25360;DHT22;13311;51.386;0.016;2024-02-26T12:13:08;8.40;94.30
25360;DHT22;13311;51.386;0.016;2024-02-26T12:18:17;8.50;94.40
25360;DHT22;13311;51.386;0.016;2024-02-26T12:23:18;8.60;94.30
25360;DHT22;13311;51.386;0.016;2024-02-26T12:28:19;8.70;93.10
25360;DHT22;13311;51.386;0.016;2024-02-26T12:33:20;8.60;93.40
25360;DHT22;13311;51.386;0.016;2024-02-26T12:38:21;8.90;93.90
25360;DHT22;13311;51.386;0.016;2024-02-26T12:43:21;9.00;93.50
25360;DHT22;13311;51.386;0.016;2024-02-26T12:48:22;9.20;93.40
25360;DHT22;13311;51.386;0.016;2024-02-26T12:53:23;9.20;93.20
25360;DHT22;13311;51.386;0.016;2024-02-26T12:58:24;9.20;94.30
25360;DHT22;13311;51.386;0.016;2024-02-26T13:03:25;9.20;94.60
25360;DHT22;13311;51.386;0.016;2024-02-26T13:08:27;9.10;94.10
25360;DHT22;13311;51.386;0.016;2024-02-26T13:13:28;9.10;93.70
25360;DHT22;13311;51.386;0.016;2024-02-26T13:18:29;9.30;93.60
25360;DHT22;13311;51.386;0.016;2024-02-26T13:23:31;9.30;93.50
25360;DHT22;13311;51.386;0.016;2024-02-26T13:28:33;9.40;93.20
25360;DHT22;13311;51.386;0.016;2024-02-26T13:33:34;9.30;92.50
25360;DHT22;13311;51.386;0.016;2024-02-26T13:38:35;9.50;92.00
25360;DHT22;13311;51.386;0.016;2024-02-26T13:43:36;9.30;92.60
25360;DHT22;13311;51.386;0.016;2024-02-26T13:48:36;9.30;92.00
25360;DHT22;13311;51.386;0.016;2024-02-26T13:53:37;9.40;92.20
25360;DHT22;13311;51.386;0.016;2024-02-26T13:58:38;9.80;92.10
25360;DHT22;13311;51.386;0.016;2024-02-26T14:03:39;9.90;92.30
25360;DHT22;13311;51.386;0.016;2024-02-26T14:08:40;9.90;91.80
25360;DHT22;13311;51.386;0.016;2024-02-26T14:13:41;9.90;91.30
25360;DHT22;13311;51.386;0.016;2024-02-26T14:18:41;10.00;91.10
25360;DHT22;13311;51.386;0.016;2024-02-26T14:23:44;10.00;90.70
25360;DHT22;13311;51.386;0.016;2024-02-26T14:28:46;9.90;91.50
25360;DHT22;13311;51.386;0.016;2024-02-26T14:33:47;9.90;91.70
25360;DHT22;13311;51.386;0.016;2024-02-26T14:38:48;10.00;91.50
25360;DHT22;13311;51.386;0.016;2024-02-26T14:43:50;10.10;92.80
25360;DHT22;13311;51.386;0.016;2024-02-26T14:48:51;10.10;91.40
25360;DHT22;13311;51.386;0.016;2024-02-26T14:53:51;10.30;92.50
25360;DHT22;13311;51.386;0.016;2024-02-26T14:58:53;10.10;90.70
25360;DHT22;13311;51.386;0.016;2024-02-26T15:03:54;10.00;90.40
25360;DHT22;13311;51.386;0.016;2024-02-26T15:08:55;9.90;91.10
25360;DHT22;13311;51.386;0.016;2024-02-26T15:13:56;9.80;91.30
25360;DHT22;13311;51.386;0.016;2024-02-26T15:18:57;10.00;91.80
25360;DHT22;13311;51.386;0.016;2024-02-26T15:23:58;9.80;90.80
25360;DHT22;13311;51.386;0.016;2024-02-26T15:28:59;9.90;91.50
25360;DHT22;13311;51.386;0.016;2024-02-26T15:34:00;9.90;90.90
25360;DHT22;13311;51.386;0.016;2024-02-26T15:39:01;10.00;91.00
25360;DHT22;13311;51.386;0.016;2024-02-26T15:44:03;10.10;90.50
25360;DHT22;13311;51.386;0.016;2024-02-26T15:49:04;10.10;90.60
25360;DHT22;13311;51.386;0.016;2024-02-26T15:54:04;10.00;90.70
25360;DHT22;13311;51.386;0.016;2024-02-26T15:59:05;9.90;90.80
25360;DHT22;13311;51.386;0.016;2024-02-26T16:04:06;9.90;90.90
25360;DHT22;13311;51.386;0.016;2024-02-26T16:09:07;9.80;90.90
25360;DHT22;13311;51.386;0.016;2024-02-26T16:19:31;9.80;91.10
25360;DHT22;13311;51.386;0.016;2024-02-26T16:24:32;9.80;90.80
25360;DHT22;13311;51.386;0.016;2024-02-26T16:29:33;9.80;90.50
25360;DHT22;13311;51.386;0.016;2024-02-26T16:34:34;10.00;90.20
25360;DHT22;13311;51.386;0.016;2024-02-26T16:39:40;9.80;90.70
25360;DHT22;13311;51.386;0.016;2024-02-26T16:44:41;9.70;90.00
25360;DHT22;13311;51.386;0.016;2024-02-26T16:49:42;9.80;89.90
25360;DHT22;13311;51.386;0.016;2024-02-26T16:54:42;9.80;90.50
25360;DHT22;13311;51.386;0.016;2024-02-26T16:59:43;9.90;90.40
25360;DHT22;13311;51.386;0.016;2024-02-26T17:04:44;10.00;90.30
25360;DHT22;13311;51.386;0.016;2024-02-26T17:09:45;9.90;90.40
25360;DHT22;13311;51.386;0.016;2024-02-26T17:14:45;9.80;90.00
25360;DHT22;13311;51.386;0.016;2024-02-26T17:19:49;9.70;90.00
25360;DHT22;13311;51.386;0.016;2024-02-26T17:24:50;9.50;89.60
25360;DHT22;13311;51.386;0.016;2024-02-26T17:29:50;9.30;90.10
25360;DHT22;13311;51.386;0.016;2024-02-26T17:34:51;9.30;90.10
25360;DHT22;13311;51.386;0.016;2024-02-26T17:39:52;9.20;91.00
25360;DHT22;13311;51.386;0.016;2024-02-26T17:44:54;9.10;90.70
25360;DHT22;13311;51.386;0.016;2024-02-26T17:49:54;9.10;90.50
25360;DHT22;13311;51.386;0.016;2024-02-26T17:54:55;9.20;90.50
25360;DHT22;13311;51.386;0.016;2024-02-26T17:59:56;9.20;90.20
25360;DHT22;13311;51.386;0.016;2024-02-26T18:04:57;8.90;90.70
25360;DHT22;13311;51.386;0.016;2024-02-26T18:09:57;9.00;90.70
25360;DHT22;13311;51.386;0.016;2024-02-26T18:14:58;9.00;91.10
25360;DHT22;13311;51.386;0.016;2024-02-26T18:19:59;8.80;91.30
25360;DHT22;13311;51.386;0.016;2024-02-26T18:25:01;8.80;91.60
25360;DHT22;13311;51.386;0.016;2024-02-26T18:30:02;8.80;91.80
25360;DHT22;13311;51.386;0.016;2024-02-26T18:35:03;8.60;91.80
25360;DHT22;13311;51.386;0.016;2024-02-26T18:40:05;8.70;92.10
25360;DHT22;13311;51.386;0.016;2024-02-26T18:45:09;8.60;92.60
25360;DHT22;13311;51.386;0.016;2024-02-26T18:50:10;8.60;92.40
25360;DHT22;13311;51.386;0.016;2024-02-26T18:55:11;8.60;92.60
25360;DHT22;13311;51.386;0.016;2024-02-26T19:00:11;8.50;92.80
25360;DHT22;13311;51.386;0.016;2024-02-26T19:05:12;8.60;92.90
25360;DHT22;13311;51.386;0.016;2024-02-26T19:10:13;8.60;93.10
25360;DHT22;13311;51.386;0.016;2024-02-26T19:15:14;8.60;93.00
25360;DHT22;13311;51.386;0.016;2024-02-26T19:20:17;8.50;93.40
25360;DHT22;13311;51.386;0.016;2024-02-26T19:25:19;8.50;93.50
25360;DHT22;13311;51.386;0.016;2024-02-26T19:30:20;8.60;93.10
25360;DHT22;13311;51.386;0.016;2024-02-26T19:35:20;8.60;93.30
25360;DHT22;13311;51.386;0.016;2024-02-26T19:40:21;8.50;93.40
25360;DHT22;13311;51.386;0.016;2024-02-26T19:45:23;8.40;93.80
25360;DHT22;13311;51.386;0.016;2024-02-26T19:50:24;8.30;93.90
25360;DHT22;13311;51.386;0.016;2024-02-26T19:55:26;8.30;94.10
25360;DHT22;13311;51.386;0.016;2024-02-26T20:00:28;8.30;94.20
25360;DHT22;13311;51.386;0.016;2024-02-26T20:05:29;8.30;94.40
25360;DHT22;13311;51.386;0.016;2024-02-26T20:10:30;8.30;94.50
25360;DHT22;13311;51.386;0.016;2024-02-26T20:15:30;8.40;94.50
25360;DHT22;13311;51.386;0.016;2024-02-26T20:20:32;8.40;94.50
25360;DHT22;13311;51.386;0.016;2024-02-26T20:25:33;8.40;94.50
25360;DHT22;13311;51.386;0.016;2024-02-26T20:30:36;8.40;94.60
25360;DHT22;13311;51.386;0.016;2024-02-26T20:35:36;8.40;95.00
25360;DHT22;13311;51.386;0.016;2024-02-26T20:40:37;8.40;95.20
25360;DHT22;13311;51.386;0.016;2024-02-26T20:45:38;8.30;95.90
25360;DHT22;13311;51.386;0.016;2024-02-26T20:50:39;8.30;95.70
25360;DHT22;13311;51.386;0.016;2024-02-26T20:55:40;8.30;95.90
25360;DHT22;13311;51.386;0.016;2024-02-26T21:00:43;8.20;96.30
25360;DHT22;13311;51.386;0.016;2024-02-26T21:05:44;8.00;96.50
25360;DHT22;13311;51.386;0.016;2024-02-26T21:10:45;8.00;96.60
25360;DHT22;13311;51.386;0.016;2024-02-26T21:15:51;8.10;96.70
25360;DHT22;13311;51.386;0.016;2024-02-26T21:20:52;7.90;97.00
25360;DHT22;13311;51.386;0.016;2024-02-26T21:25:54;7.90;97.20
25360;DHT22;13311;51.386;0.016;2024-02-26T21:30:55;7.80;97.60
25360;DHT22;13311;51.386;0.016;2024-02-26T21:35:58;7.90;97.60
25360;DHT22;13311;51.386;0.016;2024-02-26T21:40:58;7.80;97.70
25360;DHT22;13311;51.386;0.016;2024-02-26T21:45:59;7.80;97.90
25360;DHT22;13311;51.386;0.016;2024-02-26T21:51:00;7.70;98.00
25360;DHT22;13311;51.386;0.016;2024-02-26T21:56:05;7.70;97.90
25360;DHT22;13311;51.386;0.016;2024-02-26T22:01:07;7.70;97.80
25360;DHT22;13311;51.386;0.016;2024-02-26T22:06:08;7.70;97.90
25360;DHT22;13311;51.386;0.016;2024-02-26T22:11:09;7.70;97.90
25360;DHT22;13311;51.386;0.016;2024-02-26T22:16:09;7.70;97.90
25360;DHT22;13311;51.386;0.016;2024-02-26T22:21:11;7.70;98.00
25360;DHT22;13311;51.386;0.016;2024-02-26T22:26:12;7.60;98.40
25360;DHT22;13311;51.386;0.016;2024-02-26T22:31:13;7.70;98.10
25360;DHT22;13311;51.386;0.016;2024-02-26T22:36:15;7.60;98.20
25360;DHT22;13311;51.386;0.016;2024-02-26T22:41:16;7.50;98.30
25360;DHT22;13311;51.386;0.016;2024-02-26T22:46:17;7.40;98.50
25360;DHT22;13311;51.386;0.016;2024-02-26T22:51:17;7.50;98.70
25360;DHT22;13311;51.386;0.016;2024-02-26T22:56:18;7.40;98.80
25360;DHT22;13311;51.386;0.016;2024-02-26T23:01:19;7.40;99.00
25360;DHT22;13311;51.386;0.016;2024-02-26T23:06:22;7.30;99.20
25360;DHT22;13311;51.386;0.016;2024-02-26T23:11:23;7.30;99.10
25360;DHT22;13311;51.386;0.016;2024-02-26T23:16:24;7.20;99.20
25360;DHT22;13311;51.386;0.016;2024-02-26T23:21:24;7.20;99.40
25360;DHT22;13311;51.386;0.016;2024-02-26T23:26:25;7.10;99.40
25360;DHT22;13311;51.386;0.016;2024-02-26T23:31:26;7.20;99.50
25360;DHT22;13311;51.386;0.016;2024-02-26T23:36:27;7.20;99.40
25360;DHT22;13311;51.386;0.016;2024-02-26T23:41:28;7.20;99.50
25360;DHT22;13311;51.386;0.016;2024-02-26T23:46:32;7.30;99.50
25360;DHT22;13311;51.386;0.016;2024-02-26T23:51:33;7.20;99.30
25360;DHT22;13311;51.386;0.016;2024-02-26T23:56:34;7.20;99.50
